sensor_id;sensor_type;location;lat;lon;timestamp;pressure;altitude;pressure_sealevel;temperature;humidity
46379;BME280;32084;42.254;22.744;2023-03-20T00:02:19;95551.00;;;3.25;67.51
46379;BME280;32084;42.254;22.744;2023-03-20T00:04:45;95556.28;;;3.51;67.10
46379;BME280;32084;42.254;22.744;2023-03-20T00:07:11;95555.22;;;3.28;67.00
46379;BME280;32084;42.254;22.744;2023-03-20T00:09:38;95558.41;;;2.95;68.19
46379;BME280;32084;42.254;22.744;2023-03-20T00:12:04;95561.03;;;2.95;68.74
46379;BME280;32084;42.254;22.744;2023-03-20T00:14:30;95556.09;;;3.16;68.07
46379;BME280;32084;42.254;22.744;2023-03-20T00:16:56;95564.00;;;3.03;67.83
46379;BME280;32084;42.254;22.744;2023-03-20T00:19:23;95562.00;;;3.06;67.87
46379;BME280;32084;42.254;22.744;2023-03-20T00:21:51;95555.44;;;3.12;68.24
46379;BME280;32084;42.254;22.744;2023-03-20T00:24:17;95560.09;;;2.96;67.98
46379;BME280;32084;42.254;22.744;2023-03-20T00:26:44;95552.50;;;3.04;68.38
46379;BME280;32084;42.254;22.744;2023-03-20T00:29:31;95550.38;;;3.09;67.98
46379;BME280;32084;42.254;22.744;2023-03-20T00:31:57;95545.09;;;2.96;68.00
46379;BME280;32084;42.254;22.744;2023-03-20T00:34:24;95546.88;;;3.08;68.05
46379;BME280;32084;42.254;22.744;2023-03-20T00:36:52;95542.97;;;3.14;67.83
46379;BME280;32084;42.254;22.744;2023-03-20T00:39:18;95539.91;;;3.20;67.31
46379;BME280;32084;42.254;22.744;2023-03-20T00:41:48;95533.78;;;3.20;67.95
46379;BME280;32084;42.254;22.744;2023-03-20T00:44:22;95536.22;;;3.23;67.91
46379;BME280;32084;42.254;22.744;2023-03-20T00:46:50;95541.94;;;3.04;67.72
46379;BME280;32084;42.254;22.744;2023-03-20T00:49:19;95527.88;;;2.90;68.12
46379;BME280;32084;42.254;22.744;2023-03-20T00:51:47;95528.28;;;2.97;68.01
46379;BME280;32084;42.254;22.744;2023-03-20T00:54:14;95526.91;;;2.91;68.08
46379;BME280;32084;42.254;22.744;2023-03-20T00:59:27;95532.41;;;2.88;68.46
46379;BME280;32084;42.254;22.744;2023-03-20T01:01:54;95528.50;;;2.81;68.66
46379;BME280;32084;42.254;22.744;2023-03-20T01:04:21;95529.84;;;2.74;68.74
46379;BME280;32084;42.254;22.744;2023-03-20T01:06:47;95530.81;;;2.60;68.98
46379;BME280;32084;42.254;22.744;2023-03-20T01:09:13;95529.63;;;2.51;69.01
46379;BME280;32084;42.254;22.744;2023-03-20T01:11:39;95516.41;;;2.51;69.65
46379;BME280;32084;42.254;22.744;2023-03-20T01:14:09;95517.47;;;2.62;69.75
46379;BME280;32084;42.254;22.744;2023-03-20T01:16:37;95521.50;;;2.54;68.94
46379;BME280;32084;42.254;22.744;2023-03-20T01:19:03;95514.22;;;2.58;69.39
46379;BME280;32084;42.254;22.744;2023-03-20T01:21:29;95520.31;;;2.46;69.35
46379;BME280;32084;42.254;22.744;2023-03-20T01:23:55;95519.84;;;2.26;70.39
46379;BME280;32084;42.254;22.744;2023-03-20T01:26:23;95527.88;;;2.25;70.23
46379;BME280;32084;42.254;22.744;2023-03-20T01:28:52;95530.97;;;2.44;69.87
46379;BME280;32084;42.254;22.744;2023-03-20T01:31:18;95527.91;;;2.38;69.68
46379;BME280;32084;42.254;22.744;2023-03-20T01:33:44;95534.72;;;2.27;70.01
46379;BME280;32084;42.254;22.744;2023-03-20T01:36:12;95524.56;;;2.21;70.40
46379;BME280;32084;42.254;22.744;2023-03-20T01:38:39;95535.72;;;2.39;69.90
46379;BME280;32084;42.254;22.744;2023-03-20T01:43:38;95531.94;;;2.56;69.24
46379;BME280;32084;42.254;22.744;2023-03-20T01:51:15;95540.13;;;2.39;69.08
46379;BME280;32084;42.254;22.744;2023-03-20T01:53:42;95535.44;;;2.17;70.31
46379;BME280;32084;42.254;22.744;2023-03-20T01:56:08;95529.22;;;2.18;70.38
46379;BME280;32084;42.254;22.744;2023-03-20T01:58:37;95532.81;;;2.17;70.56
46379;BME280;32084;42.254;22.744;2023-03-20T02:01:06;95516.09;;;2.43;69.78
46379;BME280;32084;42.254;22.744;2023-03-20T02:03:34;95526.78;;;2.54;69.70
46379;BME280;32084;42.254;22.744;2023-03-20T02:06:00;95524.53;;;2.48;69.23
46379;BME280;32084;42.254;22.744;2023-03-20T02:08:27;95525.31;;;2.50;69.13
46379;BME280;32084;42.254;22.744;2023-03-20T02:10:54;95522.44;;;2.53;69.63
46379;BME280;32084;42.254;22.744;2023-03-20T02:13:21;95517.63;;;2.33;69.25
46379;BME280;32084;42.254;22.744;2023-03-20T02:16:31;95527.03;;;2.24;69.65
46379;BME280;32084;42.254;22.744;2023-03-20T02:18:39;95524.47;;;2.23;69.63
46379;BME280;32084;42.254;22.744;2023-03-20T02:48:57;95530.97;;;2.04;70.19
46379;BME280;32084;42.254;22.744;2023-03-20T02:54:32;95535.00;;;1.68;71.58
46379;BME280;32084;42.254;22.744;2023-03-20T02:56:58;95531.84;;;1.90;71.08
46379;BME280;32084;42.254;22.744;2023-03-20T02:59:29;95536.03;;;2.07;70.94
46379;BME280;32084;42.254;22.744;2023-03-20T03:01:58;95529.72;;;2.10;70.92
46379;BME280;32084;42.254;22.744;2023-03-20T03:04:30;95532.75;;;2.04;70.55
46379;BME280;32084;42.254;22.744;2023-03-20T03:06:58;95531.78;;;1.78;71.04
46379;BME280;32084;42.254;22.744;2023-03-20T03:09:29;95532.22;;;1.57;72.47
46379;BME280;32084;42.254;22.744;2023-03-20T03:11:59;95532.38;;;1.68;72.15
46379;BME280;32084;42.254;22.744;2023-03-20T03:14:29;95540.44;;;1.80;71.82
46379;BME280;32084;42.254;22.744;2023-03-20T03:16:57;95531.97;;;1.74;71.49
46379;BME280;32084;42.254;22.744;2023-03-20T03:19:25;95531.84;;;1.63;72.20
46379;BME280;32084;42.254;22.744;2023-03-20T03:21:53;95537.47;;;1.71;71.96
46379;BME280;32084;42.254;22.744;2023-03-20T03:24:35;95525.78;;;1.75;71.67
46379;BME280;32084;42.254;22.744;2023-03-20T03:27:02;95531.22;;;1.87;72.17
46379;BME280;32084;42.254;22.744;2023-03-20T03:29:30;95525.75;;;1.90;71.55
46379;BME280;32084;42.254;22.744;2023-03-20T03:31:59;95531.47;;;1.97;71.46
46379;BME280;32084;42.254;22.744;2023-03-20T03:34:26;95530.13;;;1.62;71.45
46379;BME280;32084;42.254;22.744;2023-03-20T03:46:50;95520.56;;;1.47;72.68
46379;BME280;32084;42.254;22.744;2023-03-20T03:49:21;95524.03;;;1.47;72.73
46379;BME280;32084;42.254;22.744;2023-03-20T03:51:49;95534.13;;;1.41;73.00
46379;BME280;32084;42.254;22.744;2023-03-20T03:54:24;95520.81;;;1.56;72.98
46379;BME280;32084;42.254;22.744;2023-03-20T03:56:51;95527.75;;;1.72;72.34
46379;BME280;32084;42.254;22.744;2023-03-20T03:59:21;95527.25;;;1.52;71.86
46379;BME280;32084;42.254;22.744;2023-03-20T04:01:49;95521.53;;;1.31;72.97
46379;BME280;32084;42.254;22.744;2023-03-20T04:04:16;95525.38;;;1.40;73.05
46379;BME280;32084;42.254;22.744;2023-03-20T04:06:43;95524.78;;;1.49;72.65
46379;BME280;32084;42.254;22.744;2023-03-20T04:09:09;95519.81;;;1.45;72.84
46379;BME280;32084;42.254;22.744;2023-03-20T04:11:35;95525.44;;;1.53;72.85
46379;BME280;32084;42.254;22.744;2023-03-20T04:14:02;95516.66;;;1.67;72.78
46379;BME280;32084;42.254;22.744;2023-03-20T04:16:28;95524.63;;;1.80;71.94
46379;BME280;32084;42.254;22.744;2023-03-20T04:18:54;95519.91;;;1.85;71.56
46379;BME280;32084;42.254;22.744;2023-03-20T04:21:20;95519.06;;;1.43;72.29
46379;BME280;32084;42.254;22.744;2023-03-20T04:23:46;95517.75;;;1.21;73.32
46379;BME280;32084;42.254;22.744;2023-03-20T04:26:13;95522.66;;;1.27;73.56
46379;BME280;32084;42.254;22.744;2023-03-20T04:28:39;95520.97;;;1.41;73.22
46379;BME280;32084;42.254;22.744;2023-03-20T04:31:05;95520.66;;;1.45;72.70
46379;BME280;32084;42.254;22.744;2023-03-20T04:33:31;95528.81;;;1.55;72.92
46379;BME280;32084;42.254;22.744;2023-03-20T04:35:57;95536.38;;;1.47;72.87
46379;BME280;32084;42.254;22.744;2023-03-20T04:38:23;95536.94;;;1.52;73.12
46379;BME280;32084;42.254;22.744;2023-03-20T04:40:49;95527.47;;;1.35;72.83
46379;BME280;32084;42.254;22.744;2023-03-20T04:43:15;95535.63;;;1.45;73.50
46379;BME280;32084;42.254;22.744;2023-03-20T04:45:42;95536.34;;;1.61;72.43
46379;BME280;32084;42.254;22.744;2023-03-20T04:48:08;95534.00;;;1.71;72.34
46379;BME280;32084;42.254;22.744;2023-03-20T04:50:34;95531.13;;;1.74;72.32
46379;BME280;32084;42.254;22.744;2023-03-20T04:53:00;95529.31;;;1.62;72.64
46379;BME280;32084;42.254;22.744;2023-03-20T04:55:26;95540.94;;;1.72;72.56
46379;BME280;32084;42.254;22.744;2023-03-20T04:57:52;95536.56;;;1.85;72.25
46379;BME280;32084;42.254;22.744;2023-03-20T05:00:18;95541.16;;;1.96;72.15
46379;BME280;32084;42.254;22.744;2023-03-20T05:02:45;95544.47;;;2.12;71.36
46379;BME280;32084;42.254;22.744;2023-03-20T05:05:11;95544.16;;;2.04;71.36
46379;BME280;32084;42.254;22.744;2023-03-20T05:07:37;95538.53;;;1.96;72.26
46379;BME280;32084;42.254;22.744;2023-03-20T05:10:03;95540.22;;;2.24;71.89
46379;BME280;32084;42.254;22.744;2023-03-20T05:12:30;95537.34;;;2.54;71.38
46379;BME280;32084;42.254;22.744;2023-03-20T05:14:56;95540.94;;;2.66;71.56
46379;BME280;32084;42.254;22.744;2023-03-20T05:17:22;95539.34;;;2.77;71.03
46379;BME280;32084;42.254;22.744;2023-03-20T05:19:49;95540.31;;;2.63;70.60
46379;BME280;32084;42.254;22.744;2023-03-20T05:22:15;95540.44;;;2.34;71.85
46379;BME280;32084;42.254;22.744;2023-03-20T05:24:41;95533.84;;;2.54;71.36
46379;BME280;32084;42.254;22.744;2023-03-20T05:27:08;95536.44;;;2.94;70.54
46379;BME280;32084;42.254;22.744;2023-03-20T05:29:34;95547.09;;;3.18;69.48
46379;BME280;32084;42.254;22.744;2023-03-20T05:32:00;95550.47;;;3.46;69.03
46379;BME280;32084;42.254;22.744;2023-03-20T05:34:26;95552.75;;;3.63;68.72
46379;BME280;32084;42.254;22.744;2023-03-20T05:36:52;95548.16;;;3.91;68.55
46379;BME280;32084;42.254;22.744;2023-03-20T05:39:18;95557.16;;;4.13;67.91
46379;BME280;32084;42.254;22.744;2023-03-20T05:41:44;95558.38;;;4.33;67.32
46379;BME280;32084;42.254;22.744;2023-03-20T05:44:11;95550.63;;;4.05;68.23
46379;BME280;32084;42.254;22.744;2023-03-20T05:46:37;95556.00;;;4.04;68.55
46379;BME280;32084;42.254;22.744;2023-03-20T05:49:03;95564.53;;;4.20;67.54
46379;BME280;32084;42.254;22.744;2023-03-20T05:51:29;95562.53;;;4.48;66.94
46379;BME280;32084;42.254;22.744;2023-03-20T05:53:55;95562.00;;;4.67;65.50
46379;BME280;32084;42.254;22.744;2023-03-20T05:56:21;95563.03;;;5.00;64.87
46379;BME280;32084;42.254;22.744;2023-03-20T05:58:47;95562.38;;;5.32;63.84
46379;BME280;32084;42.254;22.744;2023-03-20T06:01:13;95564.06;;;5.78;63.95
46379;BME280;32084;42.254;22.744;2023-03-20T06:03:42;95564.06;;;6.12;62.01
46379;BME280;32084;42.254;22.744;2023-03-20T06:06:08;95561.72;;;6.30;60.69
46379;BME280;32084;42.254;22.744;2023-03-20T06:08:35;95571.84;;;6.47;59.78
46379;BME280;32084;42.254;22.744;2023-03-20T06:11:02;95557.31;;;6.51;59.09
46379;BME280;32084;42.254;22.744;2023-03-20T06:13:28;95569.38;;;6.55;59.47
46379;BME280;32084;42.254;22.744;2023-03-20T06:15:55;95567.22;;;6.81;58.90
46379;BME280;32084;42.254;22.744;2023-03-20T06:18:21;95565.94;;;6.76;58.61
46379;BME280;32084;42.254;22.744;2023-03-20T06:20:51;95557.19;;;6.85;58.85
46379;BME280;32084;42.254;22.744;2023-03-20T06:23:17;95557.38;;;6.72;58.58
46379;BME280;32084;42.254;22.744;2023-03-20T06:25:43;95558.38;;;6.81;57.66
46379;BME280;32084;42.254;22.744;2023-03-20T06:28:10;95551.66;;;7.19;57.66
46379;BME280;32084;42.254;22.744;2023-03-20T06:30:36;95550.13;;;7.47;56.56
46379;BME280;32084;42.254;22.744;2023-03-20T06:33:03;95551.31;;;7.54;55.64
46379;BME280;32084;42.254;22.744;2023-03-20T06:35:30;95556.84;;;7.41;56.13
46379;BME280;32084;42.254;22.744;2023-03-20T06:37:57;95555.41;;;7.37;56.93
46379;BME280;32084;42.254;22.744;2023-03-20T06:40:23;95551.66;;;7.40;56.83
46379;BME280;32084;42.254;22.744;2023-03-20T06:42:50;95553.72;;;7.57;55.37
46379;BME280;32084;42.254;22.744;2023-03-20T06:45:16;95561.53;;;7.80;54.48
46379;BME280;32084;42.254;22.744;2023-03-20T06:47:42;95556.50;;;7.96;54.33
46379;BME280;32084;42.254;22.744;2023-03-20T06:50:08;95556.47;;;8.27;52.06
46379;BME280;32084;42.254;22.744;2023-03-20T06:52:35;95562.56;;;8.49;51.38
46379;BME280;32084;42.254;22.744;2023-03-20T06:55:01;95562.88;;;9.04;50.87
46379;BME280;32084;42.254;22.744;2023-03-20T06:57:27;95563.13;;;9.21;50.43
46379;BME280;32084;42.254;22.744;2023-03-20T06:59:53;95568.72;;;9.27;49.32
46379;BME280;32084;42.254;22.744;2023-03-20T07:02:19;95568.44;;;9.40;49.31
46379;BME280;32084;42.254;22.744;2023-03-20T07:04:45;95576.53;;;9.68;48.66
46379;BME280;32084;42.254;22.744;2023-03-20T07:07:11;95577.31;;;10.15;48.31
46379;BME280;32084;42.254;22.744;2023-03-20T07:09:38;95579.44;;;10.67;47.92
46379;BME280;32084;42.254;22.744;2023-03-20T07:12:04;95586.63;;;10.85;46.30
46379;BME280;32084;42.254;22.744;2023-03-20T07:14:34;95589.19;;;11.04;45.84
46379;BME280;32084;42.254;22.744;2023-03-20T07:17:00;95591.97;;;10.85;45.74
46379;BME280;32084;42.254;22.744;2023-03-20T07:19:26;95584.34;;;10.90;46.27
46379;BME280;32084;42.254;22.744;2023-03-20T07:21:54;95575.84;;;10.77;45.82
46379;BME280;32084;42.254;22.744;2023-03-20T07:24:22;95577.66;;;11.30;45.16
46379;BME280;32084;42.254;22.744;2023-03-20T07:26:49;95566.88;;;11.66;45.31
46379;BME280;32084;42.254;22.744;2023-03-20T07:29:15;95563.75;;;11.97;43.47
46379;BME280;32084;42.254;22.744;2023-03-20T07:31:41;95555.94;;;11.85;43.89
46379;BME280;32084;42.254;22.744;2023-03-20T07:34:07;95567.00;;;12.08;42.98
46379;BME280;32084;42.254;22.744;2023-03-20T07:36:33;95559.50;;;12.20;43.20
46379;BME280;32084;42.254;22.744;2023-03-20T07:38:59;95557.16;;;12.76;42.99
46379;BME280;32084;42.254;22.744;2023-03-20T07:41:25;95552.34;;;13.13;43.38
46379;BME280;32084;42.254;22.744;2023-03-20T07:43:51;95560.25;;;13.63;40.96
46379;BME280;32084;42.254;22.744;2023-03-20T07:46:17;95560.53;;;13.93;41.77
46379;BME280;32084;42.254;22.744;2023-03-20T07:48:43;95561.38;;;13.85;41.42
46379;BME280;32084;42.254;22.744;2023-03-20T07:51:09;95572.13;;;14.41;40.69
46379;BME280;32084;42.254;22.744;2023-03-20T07:53:36;95579.13;;;14.19;40.39
46379;BME280;32084;42.254;22.744;2023-03-20T07:56:02;95556.66;;;13.96;41.08
46379;BME280;32084;42.254;22.744;2023-03-20T07:58:28;95557.63;;;14.03;40.78
46379;BME280;32084;42.254;22.744;2023-03-20T08:00:55;95563.06;;;14.42;40.83
46379;BME280;32084;42.254;22.744;2023-03-20T08:03:21;95559.97;;;14.62;40.63
46379;BME280;32084;42.254;22.744;2023-03-20T08:05:47;95569.53;;;14.96;39.61
46379;BME280;32084;42.254;22.744;2023-03-20T08:08:13;95573.91;;;14.97;39.56
46379;BME280;32084;42.254;22.744;2023-03-20T08:10:40;95569.97;;;14.76;39.98
46379;BME280;32084;42.254;22.744;2023-03-20T08:13:06;95566.91;;;15.11;39.65
46379;BME280;32084;42.254;22.744;2023-03-20T08:15:32;95569.13;;;15.07;39.51
46379;BME280;32084;42.254;22.744;2023-03-20T08:17:58;95569.41;;;15.35;38.76
46379;BME280;32084;42.254;22.744;2023-03-20T08:20:24;95573.75;;;15.83;38.12
46379;BME280;32084;42.254;22.744;2023-03-20T08:22:51;95573.66;;;15.91;37.83
46379;BME280;32084;42.254;22.744;2023-03-20T08:25:17;95571.59;;;15.55;37.76
46379;BME280;32084;42.254;22.744;2023-03-20T08:27:43;95569.78;;;15.32;37.53
46379;BME280;32084;42.254;22.744;2023-03-20T08:30:09;95565.03;;;15.34;38.19
46379;BME280;32084;42.254;22.744;2023-03-20T08:32:35;95561.03;;;14.84;38.67
46379;BME280;32084;42.254;22.744;2023-03-20T08:35:02;95551.25;;;14.83;39.46
46379;BME280;32084;42.254;22.744;2023-03-20T08:37:28;95547.50;;;15.15;38.27
46379;BME280;32084;42.254;22.744;2023-03-20T08:39:54;95555.81;;;15.52;38.89
46379;BME280;32084;42.254;22.744;2023-03-20T08:42:20;95557.78;;;15.58;36.95
46379;BME280;32084;42.254;22.744;2023-03-20T08:44:46;95551.84;;;15.62;37.02
46379;BME280;32084;42.254;22.744;2023-03-20T08:47:12;95549.78;;;16.32;36.39
46379;BME280;32084;42.254;22.744;2023-03-20T08:49:38;95549.00;;;16.53;36.29
46379;BME280;32084;42.254;22.744;2023-03-20T08:52:04;95554.84;;;16.72;34.54
46379;BME280;32084;42.254;22.744;2023-03-20T08:54:31;95552.75;;;17.25;34.49
46379;BME280;32084;42.254;22.744;2023-03-20T08:56:58;95550.56;;;16.92;34.48
46379;BME280;32084;42.254;22.744;2023-03-20T08:59:24;95550.75;;;16.91;34.65
46379;BME280;32084;42.254;22.744;2023-03-20T09:01:50;95553.53;;;17.19;34.89
46379;BME280;32084;42.254;22.744;2023-03-20T09:04:16;95538.63;;;17.23;34.17
46379;BME280;32084;42.254;22.744;2023-03-20T09:06:42;95543.47;;;17.56;34.17
46379;BME280;32084;42.254;22.744;2023-03-20T09:09:09;95539.84;;;17.21;34.59
46379;BME280;32084;42.254;22.744;2023-03-20T09:11:35;95542.31;;;17.22;34.31
46379;BME280;32084;42.254;22.744;2023-03-20T09:14:01;95535.25;;;17.43;34.39
46379;BME280;32084;42.254;22.744;2023-03-20T09:16:27;95526.88;;;17.59;34.58
46379;BME280;32084;42.254;22.744;2023-03-20T09:18:54;95533.72;;;17.83;32.89
46379;BME280;32084;42.254;22.744;2023-03-20T09:21:20;95545.75;;;18.37;32.24
46379;BME280;32084;42.254;22.744;2023-03-20T09:23:46;95530.88;;;18.20;32.95
46379;BME280;32084;42.254;22.744;2023-03-20T09:26:12;95530.38;;;18.09;31.76
46379;BME280;32084;42.254;22.744;2023-03-20T09:28:38;95523.72;;;17.84;32.50
46379;BME280;32084;42.254;22.744;2023-03-20T09:31:05;95515.69;;;17.90;32.08
46379;BME280;32084;42.254;22.744;2023-03-20T09:33:31;95513.41;;;17.94;32.34
46379;BME280;32084;42.254;22.744;2023-03-20T09:35:57;95512.91;;;17.84;31.63
46379;BME280;32084;42.254;22.744;2023-03-20T09:38:23;95495.53;;;17.71;32.77
46379;BME280;32084;42.254;22.744;2023-03-20T09:46:00;95493.69;;;18.00;31.62
46379;BME280;32084;42.254;22.744;2023-03-20T09:48:39;95491.84;;;18.07;31.28
46379;BME280;32084;42.254;22.744;2023-03-20T09:53:54;95475.97;;;19.01;32.21
46379;BME280;32084;42.254;22.744;2023-03-20T09:56:22;95477.44;;;18.90;31.17
46379;BME280;32084;42.254;22.744;2023-03-20T09:58:53;95464.13;;;19.02;32.15
46379;BME280;32084;42.254;22.744;2023-03-20T10:01:25;95467.06;;;19.20;31.78
46379;BME280;32084;42.254;22.744;2023-03-20T10:03:52;95466.63;;;19.50;31.30
46379;BME280;32084;42.254;22.744;2023-03-20T10:06:20;95459.38;;;19.77;31.01
46379;BME280;32084;42.254;22.744;2023-03-20T10:08:46;95463.06;;;20.09;31.38
46379;BME280;32084;42.254;22.744;2023-03-20T10:11:25;95457.63;;;20.03;30.96
46379;BME280;32084;42.254;22.744;2023-03-20T10:19:29;95454.00;;;20.36;30.01
46379;BME280;32084;42.254;22.744;2023-03-20T10:22:00;95447.38;;;20.12;31.01
46379;BME280;32084;42.254;22.744;2023-03-20T10:24:35;95430.44;;;20.23;31.72
46379;BME280;32084;42.254;22.744;2023-03-20T10:27:48;95427.06;;;20.34;30.37
46379;BME280;32084;42.254;22.744;2023-03-20T10:32:28;95424.69;;;19.93;30.36
46379;BME280;32084;42.254;22.744;2023-03-20T10:40:10;95402.97;;;20.44;30.51
46379;BME280;32084;42.254;22.744;2023-03-20T10:42:40;95403.53;;;20.60;29.57
46379;BME280;32084;42.254;22.744;2023-03-20T10:47:43;95395.91;;;20.75;29.70
46379;BME280;32084;42.254;22.744;2023-03-20T10:50:47;95391.28;;;20.82;30.42
46379;BME280;32084;42.254;22.744;2023-03-20T10:53:05;95397.72;;;20.88;29.54
46379;BME280;32084;42.254;22.744;2023-03-20T10:55:36;95380.94;;;20.98;30.34
46379;BME280;32084;42.254;22.744;2023-03-20T11:00:29;95377.47;;;20.84;29.39
46379;BME280;32084;42.254;22.744;2023-03-20T11:02:56;95365.50;;;20.92;29.78
46379;BME280;32084;42.254;22.744;2023-03-20T11:05:31;95361.91;;;20.98;29.78
46379;BME280;32084;42.254;22.744;2023-03-20T11:08:03;95367.09;;;20.74;28.32
46379;BME280;32084;42.254;22.744;2023-03-20T11:10:31;95356.06;;;20.24;28.51
46379;BME280;32084;42.254;22.744;2023-03-20T11:12:57;95351.19;;;20.39;30.10
46379;BME280;32084;42.254;22.744;2023-03-20T11:15:31;95343.63;;;20.48;29.37
46379;BME280;32084;42.254;22.744;2023-03-20T11:18:01;95338.47;;;20.40;29.82
46379;BME280;32084;42.254;22.744;2023-03-20T11:32:47;95308.97;;;20.75;29.73
46379;BME280;32084;42.254;22.744;2023-03-20T11:37:54;95297.13;;;20.95;29.35
46379;BME280;32084;42.254;22.744;2023-03-20T11:40:24;95295.63;;;20.99;29.54
46379;BME280;32084;42.254;22.744;2023-03-20T11:42:55;95283.00;;;21.30;29.91
46379;BME280;32084;42.254;22.744;2023-03-20T11:45:22;95281.25;;;21.35;29.68
46379;BME280;32084;42.254;22.744;2023-03-20T11:47:52;95280.59;;;21.40;29.78
46379;BME280;32084;42.254;22.744;2023-03-20T11:51:05;95270.66;;;21.52;29.27
46379;BME280;32084;42.254;22.744;2023-03-20T11:55:45;95267.06;;;21.33;28.00
46379;BME280;32084;42.254;22.744;2023-03-20T11:58:22;95265.72;;;21.42;27.94
46379;BME280;32084;42.254;22.744;2023-03-20T12:00:49;95258.19;;;21.44;28.74
46379;BME280;32084;42.254;22.744;2023-03-20T12:03:35;95260.19;;;21.31;28.30
46379;BME280;32084;42.254;22.744;2023-03-20T12:06:04;95253.53;;;21.26;27.37
46379;BME280;32084;42.254;22.744;2023-03-20T12:08:31;95257.63;;;21.17;27.73
46379;BME280;32084;42.254;22.744;2023-03-20T12:11:02;95252.78;;;21.38;27.03
46379;BME280;32084;42.254;22.744;2023-03-20T12:13:32;95255.19;;;21.28;26.10
46379;BME280;32084;42.254;22.744;2023-03-20T12:16:00;95252.13;;;21.42;27.49
46379;BME280;32084;42.254;22.744;2023-03-20T12:18:34;95250.69;;;21.40;25.34
46379;BME280;32084;42.254;22.744;2023-03-20T12:21:18;95250.03;;;21.44;25.52
46379;BME280;32084;42.254;22.744;2023-03-20T12:26:55;95237.09;;;21.40;24.55
46379;BME280;32084;42.254;22.744;2023-03-20T12:29:35;95249.63;;;21.41;24.16
46379;BME280;32084;42.254;22.744;2023-03-20T12:32:12;95234.72;;;21.43;24.16
46379;BME280;32084;42.254;22.744;2023-03-20T12:34:41;95230.78;;;21.39;25.02
46379;BME280;32084;42.254;22.744;2023-03-20T12:37:10;95219.88;;;21.64;25.47
46379;BME280;32084;42.254;22.744;2023-03-20T12:39:37;95210.25;;;21.80;26.10
46379;BME280;32084;42.254;22.744;2023-03-20T12:44:48;95203.03;;;21.86;25.75
46379;BME280;32084;42.254;22.744;2023-03-20T12:47:27;95203.66;;;21.88;25.06
46379;BME280;32084;42.254;22.744;2023-03-20T12:57:31;95197.63;;;21.68;22.53
46379;BME280;32084;42.254;22.744;2023-03-20T13:00:46;95187.44;;;21.63;23.99
46379;BME280;32084;42.254;22.744;2023-03-20T13:05:29;95191.63;;;21.77;23.69
46379;BME280;32084;42.254;22.744;2023-03-20T13:13:12;95166.69;;;22.11;24.80
46379;BME280;32084;42.254;22.744;2023-03-20T13:18:10;95150.81;;;22.19;25.45
46379;BME280;32084;42.254;22.744;2023-03-20T13:23:13;95160.34;;;22.29;24.48
46379;BME280;32084;42.254;22.744;2023-03-20T13:31:25;95144.75;;;22.06;23.77
46379;BME280;32084;42.254;22.744;2023-03-20T13:36:16;95139.75;;;21.91;23.60
46379;BME280;32084;42.254;22.744;2023-03-20T13:38:51;95129.53;;;21.74;23.53
46379;BME280;32084;42.254;22.744;2023-03-20T13:41:19;95126.34;;;21.77;24.85
46379;BME280;32084;42.254;22.744;2023-03-20T13:43:51;95121.25;;;21.81;23.71
46379;BME280;32084;42.254;22.744;2023-03-20T13:46:42;95121.53;;;21.91;23.90
46379;BME280;32084;42.254;22.744;2023-03-20T13:49:26;95122.25;;;21.98;23.92
46379;BME280;32084;42.254;22.744;2023-03-20T13:51:56;95116.81;;;21.98;23.78
46379;BME280;32084;42.254;22.744;2023-03-20T14:04:57;95107.38;;;21.59;24.35
46379;BME280;32084;42.254;22.744;2023-03-20T14:07:27;95110.38;;;21.51;24.56
46379;BME280;32084;42.254;22.744;2023-03-20T14:09:53;95098.09;;;21.48;24.89
46379;BME280;32084;42.254;22.744;2023-03-20T14:12:22;95098.69;;;21.50;24.65
46379;BME280;32084;42.254;22.744;2023-03-20T14:14:56;95099.13;;;21.47;25.32
46379;BME280;32084;42.254;22.744;2023-03-20T14:17:24;95101.25;;;21.45;24.12
46379;BME280;32084;42.254;22.744;2023-03-20T14:19:51;95097.91;;;21.43;23.73
46379;BME280;32084;42.254;22.744;2023-03-20T14:22:33;95103.56;;;21.41;24.01
46379;BME280;32084;42.254;22.744;2023-03-20T14:25:07;95103.19;;;21.38;23.48
46379;BME280;32084;42.254;22.744;2023-03-20T14:35:27;95093.97;;;21.09;24.95
46379;BME280;32084;42.254;22.744;2023-03-20T14:40:41;95093.00;;;21.03;24.62
46379;BME280;32084;42.254;22.744;2023-03-20T14:43:16;95087.09;;;21.06;24.69
46379;BME280;32084;42.254;22.744;2023-03-20T14:48:41;95068.72;;;21.20;23.86
46379;BME280;32084;42.254;22.744;2023-03-20T14:53:55;95068.91;;;21.37;24.65
46379;BME280;32084;42.254;22.744;2023-03-20T14:56:30;95072.56;;;21.31;23.97
46379;BME280;32084;42.254;22.744;2023-03-20T14:59:03;95069.59;;;21.32;24.59
46379;BME280;32084;42.254;22.744;2023-03-20T15:04:38;95067.16;;;21.12;25.30
46379;BME280;32084;42.254;22.744;2023-03-20T15:06:58;95073.91;;;21.10;25.86
46379;BME280;32084;42.254;22.744;2023-03-20T15:09:25;95072.59;;;21.12;25.43
46379;BME280;32084;42.254;22.744;2023-03-20T15:11:52;95066.56;;;21.10;25.36
46379;BME280;32084;42.254;22.744;2023-03-20T15:14:21;95067.09;;;21.00;25.64
46379;BME280;32084;42.254;22.744;2023-03-20T15:16:49;95068.47;;;20.91;25.59
46379;BME280;32084;42.254;22.744;2023-03-20T15:19:21;95064.63;;;20.99;25.70
46379;BME280;32084;42.254;22.744;2023-03-20T15:21:47;95069.44;;;20.97;26.12
46379;BME280;32084;42.254;22.744;2023-03-20T15:24:31;95072.00;;;20.92;25.74
46379;BME280;32084;42.254;22.744;2023-03-20T15:26:58;95075.25;;;20.82;26.03
46379;BME280;32084;42.254;22.744;2023-03-20T15:29:25;95076.56;;;20.79;25.99
46379;BME280;32084;42.254;22.744;2023-03-20T15:31:58;95074.06;;;20.78;25.63
46379;BME280;32084;42.254;22.744;2023-03-20T15:34:27;95075.09;;;20.77;25.59
46379;BME280;32084;42.254;22.744;2023-03-20T15:36:57;95072.88;;;20.74;25.53
46379;BME280;32084;42.254;22.744;2023-03-20T15:39:25;95073.75;;;20.67;25.55
46379;BME280;32084;42.254;22.744;2023-03-20T15:44:19;95054.31;;;20.45;25.80